METAR Formatted Surface Weather Observation
Issued by NWS

Home | Current Version | Previous Version | Text Only | Print | Product List | Glossary On
Versions: 1 2 3 4 5 6 7 8 9 10 11 12 13 14 15 16 17 18 19 20
000
SAUS46 KSEW 221829
MTRSMP
SPECI KSMP 221821Z AUTO VRB03KT 7SM FEW005 BKN048 OVC060 12/10 A3013
RMK AO2 T01170100



USA.gov is the U.S. government's official web portal to all federal, state and local government web resources and services.